createdAt,value
2023-01-31T00:01:41.234Z,101002.69
2023-01-31T00:04:12.401Z,101003.31
2023-01-31T00:06:43.758Z,101011.38
2023-01-31T00:09:13.214Z,101000.69
2023-01-31T00:11:40.477Z,101006.63
2023-01-31T00:14:10.656Z,101009.59
2023-01-31T00:16:38.287Z,101010.34
2023-01-31T00:19:05.387Z,101011.84
2023-01-31T00:21:33.457Z,101016.25
2023-01-31T00:24:01.696Z,101021.28
2023-01-31T00:26:36.116Z,101023.34
2023-01-31T00:29:05.467Z,101012.75
2023-01-31T00:31:35.116Z,101015.16
2023-01-31T00:34:02.326Z,101009.72
2023-01-31T00:36:34.820Z,101017.22
2023-01-31T00:39:05.026Z,101011.78
2023-01-31T00:41:32.968Z,101019.41
2023-01-31T00:44:00.391Z,101029.72
2023-01-31T00:46:28.277Z,101027.78
2023-01-31T00:48:56.576Z,101032.94
2023-01-31T00:51:26.798Z,101029.22
2023-01-31T00:53:54.122Z,101024.00
2023-01-31T00:56:24.726Z,101021.22
2023-01-31T00:58:52.820Z,101023.63
2023-01-31T01:01:27.663Z,101026.25
2023-01-31T01:03:56.991Z,101032.97
2023-01-31T01:06:24.748Z,101034.91
2023-01-31T01:08:51.875Z,101035.50
2023-01-31T01:11:30.032Z,101025.72
2023-01-31T01:13:59.319Z,101022.75
2023-01-31T01:16:36.845Z,101019.84
2023-01-31T01:19:10.969Z,101019.69
2023-01-31T01:21:41.102Z,101020.06
2023-01-31T01:24:19.654Z,101016.28
2023-01-31T01:26:47.058Z,101019.47
2023-01-31T01:29:14.559Z,101011.72
2023-01-31T01:31:41.774Z,101013.88
2023-01-31T01:34:15.146Z,101005.75
2023-01-31T01:36:42.873Z,101002.81
2023-01-31T01:39:12.081Z,101001.09
2023-01-31T01:41:40.300Z,101013.78
2023-01-31T01:44:45.903Z,101009.25
2023-01-31T01:47:42.994Z,101009.19
2023-01-31T01:50:30.262Z,101002.75
2023-01-31T01:53:20.435Z,101016.34
2023-01-31T01:56:12.180Z,101016.13
2023-01-31T01:59:08.587Z,101008.38
2023-01-31T02:01:38.445Z,101030.53
2023-01-31T02:04:13.726Z,101019.94
2023-01-31T02:06:41.511Z,101029.84
2023-01-31T02:09:19.098Z,101021.47
2023-01-31T02:11:46.462Z,101019.69
2023-01-31T02:14:13.572Z,101017.28
2023-01-31T02:16:40.579Z,101000.28
2023-01-31T02:19:27.633Z,100997.94
2023-01-31T02:22:06.891Z,101001.59
2023-01-31T02:25:11.249Z,100984.59
2023-01-31T02:27:47.276Z,100992.19
2023-01-31T02:31:01.709Z,100989.34
2023-01-31T02:34:27.147Z,100996.91
2023-01-31T02:37:23.487Z,100990.44
2023-01-31T02:40:17.386Z,100994.75
2023-01-31T02:44:00.598Z,100998.66
2023-01-31T02:47:10.562Z,100993.81
2023-01-31T02:49:50.937Z,101000.66
2023-01-31T02:52:51.740Z,101002.31
2023-01-31T02:56:04.324Z,101007.16
2023-01-31T02:58:36.765Z,100997.16
2023-01-31T03:01:06.091Z,101000.75
2023-01-31T03:03:37.965Z,100994.72
2023-01-31T03:06:23.336Z,101000.31
2023-01-31T03:09:06.414Z,101005.31
2023-01-31T03:12:12.732Z,101009.22
2023-01-31T03:14:47.708Z,101002.81
2023-01-31T03:18:06.147Z,101013.09
2023-01-31T03:20:47.620Z,101010.97
2023-01-31T03:23:20.276Z,100997.97
2023-01-31T03:25:48.581Z,101000.41
2023-01-31T03:28:22.184Z,101013.47
2023-01-31T03:31:02.365Z,101007.91
2023-01-31T03:33:36.727Z,101005.97
2023-01-31T03:36:38.563Z,101015.25
2023-01-31T03:39:23.415Z,101014.19
2023-01-31T03:42:13.525Z,101022.44
2023-01-31T03:44:50.628Z,101033.03
2023-01-31T03:47:43.196Z,101015.91
2023-01-31T03:50:39.810Z,101016.78
2023-01-31T03:53:40.066Z,101009.56
2023-01-31T03:56:26.774Z,101022.97
2023-01-31T03:59:04.452Z,101013.50
2023-01-31T04:01:36.134Z,101015.03
2023-01-31T04:04:12.978Z,101032.53
2023-01-31T04:06:40.575Z,101043.84
2023-01-31T04:09:07.626Z,101050.00
2023-01-31T04:11:39.869Z,101054.13
2023-01-31T04:14:08.053Z,101050.88
2023-01-31T04:16:35.041Z,101039.75
2023-01-31T04:19:02.095Z,101046.03
2023-01-31T04:21:29.151Z,101055.69
2023-01-31T04:23:56.164Z,101048.16
2023-01-31T04:26:23.319Z,101036.91
2023-01-31T04:28:51.355Z,101035.03
2023-01-31T04:31:18.443Z,101037.13
2023-01-31T04:33:45.546Z,101024.38
2023-01-31T04:36:12.648Z,101030.31
2023-01-31T04:38:39.623Z,101018.28
2023-01-31T04:41:06.652Z,101021.97
2023-01-31T04:43:33.925Z,101012.13
2023-01-31T04:46:00.929Z,101015.53
2023-01-31T04:48:29.111Z,101022.53
2023-01-31T04:50:57.025Z,101014.47
2023-01-31T04:53:24.071Z,101014.56
2023-01-31T04:55:55.128Z,101002.09
2023-01-31T04:58:23.003Z,101004.78
2023-01-31T05:00:50.050Z,100999.69
2023-01-31T05:03:17.064Z,101014.84
2023-01-31T05:05:44.040Z,101010.19
2023-01-31T05:08:11.138Z,101018.91
2023-01-31T05:10:38.129Z,101013.69
2023-01-31T05:13:05.218Z,101018.56
2023-01-31T05:15:33.025Z,101011.13
2023-01-31T05:18:03.115Z,101007.44
2023-01-31T05:20:34.041Z,101005.03
2023-01-31T05:23:01.317Z,101010.16
2023-01-31T05:25:28.853Z,100991.50
2023-01-31T05:27:55.996Z,100992.84
2023-01-31T05:30:26.662Z,101004.94
2023-01-31T05:32:54.662Z,101005.13
2023-01-31T05:35:22.716Z,101023.94
2023-01-31T05:37:50.047Z,101014.22
2023-01-31T05:40:17.869Z,101012.97
2023-01-31T05:42:45.375Z,101028.84
2023-01-31T05:45:13.605Z,101034.44
2023-01-31T05:47:41.040Z,101049.25
2023-01-31T05:50:08.956Z,101044.66
2023-01-31T05:52:36.057Z,101058.94
2023-01-31T05:55:03.058Z,101061.28
2023-01-31T05:57:30.127Z,101063.97
2023-01-31T05:59:57.397Z,101057.06
2023-01-31T06:02:24.447Z,101061.91
2023-01-31T06:04:51.342Z,101064.06
2023-01-31T06:07:18.397Z,101070.63
2023-01-31T06:09:45.408Z,101073.41
2023-01-31T06:12:15.436Z,101080.22
2023-01-31T06:14:42.418Z,101077.25
2023-01-31T06:17:09.695Z,101081.09
2023-01-31T06:19:36.694Z,101083.22
2023-01-31T06:22:04.601Z,101073.84
2023-01-31T06:24:31.806Z,101086.03
2023-01-31T06:26:59.292Z,101082.78
2023-01-31T06:29:26.388Z,101078.94
2023-01-31T06:31:53.746Z,101079.22
2023-01-31T06:34:20.896Z,101072.47
2023-01-31T06:36:47.888Z,101075.16
2023-01-31T06:39:15.207Z,101075.16
2023-01-31T06:41:42.169Z,101072.53
2023-01-31T06:44:09.253Z,101071.13
2023-01-31T06:46:36.585Z,101081.00
2023-01-31T06:49:03.923Z,101072.31
2023-01-31T06:51:31.730Z,101079.63
2023-01-31T06:53:58.757Z,101082.44
2023-01-31T06:56:25.708Z,101087.66
2023-01-31T06:58:52.742Z,101091.25
2023-01-31T07:01:19.871Z,101103.13
2023-01-31T07:03:46.932Z,101108.44
2023-01-31T07:06:14.012Z,101107.75
2023-01-31T07:08:41.278Z,101100.16
2023-01-31T07:11:08.365Z,101093.19
2023-01-31T07:13:35.421Z,101088.41
2023-01-31T07:16:02.434Z,101091.28
2023-01-31T07:18:30.190Z,101105.19
2023-01-31T07:20:57.178Z,101106.28
2023-01-31T07:23:24.151Z,101119.34
2023-01-31T07:25:51.176Z,101116.19
2023-01-31T07:28:18.218Z,101150.59
2023-01-31T07:30:46.414Z,101144.50
2023-01-31T07:33:13.474Z,101154.19
2023-01-31T07:35:43.424Z,101147.28
2023-01-31T07:38:11.393Z,101145.47
2023-01-31T07:40:40.189Z,101147.28
2023-01-31T07:43:07.249Z,101159.66
2023-01-31T07:45:34.355Z,101164.72
2023-01-31T07:48:01.645Z,101173.44
2023-01-31T07:50:28.646Z,101170.31
2023-01-31T07:52:59.058Z,101173.28
2023-01-31T07:55:27.012Z,101173.81
2023-01-31T07:57:53.999Z,101173.91
2023-01-31T08:00:40.344Z,101190.25
2023-01-31T08:03:33.733Z,101194.47
2023-01-31T08:06:12.587Z,101195.03
2023-01-31T08:08:42.537Z,101203.13
2023-01-31T08:11:09.712Z,101197.28
2023-01-31T08:13:38.920Z,101206.50
2023-01-31T08:16:09.446Z,101207.75
2023-01-31T08:18:38.318Z,101206.09
2023-01-31T08:21:06.255Z,101224.28
2023-01-31T08:23:34.155Z,101233.03
2023-01-31T08:26:19.101Z,101239.59
2023-01-31T08:28:48.757Z,101245.69
2023-01-31T08:31:20.262Z,101243.63
2023-01-31T08:33:48.085Z,101247.16
2023-01-31T08:36:19.894Z,101236.63
2023-01-31T08:38:47.470Z,101242.16
2023-01-31T08:41:18.045Z,101246.41
2023-01-31T08:43:56.270Z,101259.72
2023-01-31T08:46:27.914Z,101270.50
2023-01-31T08:48:54.954Z,101266.06
2023-01-31T08:51:23.108Z,101269.66
2023-01-31T08:53:50.533Z,101261.91
2023-01-31T08:56:18.124Z,101260.38
2023-01-31T08:58:45.656Z,101249.34
2023-01-31T09:01:16.133Z,101253.97
2023-01-31T09:03:45.105Z,101257.66
2023-01-31T09:06:22.193Z,101256.50
2023-01-31T09:08:49.167Z,101255.47
2023-01-31T09:11:19.311Z,101266.06
2023-01-31T09:13:51.365Z,101266.38
2023-01-31T09:16:20.243Z,101269.31
2023-01-31T09:18:47.943Z,101255.81
2023-01-31T09:21:20.658Z,101259.72
2023-01-31T09:23:49.635Z,101266.00
2023-01-31T09:26:17.226Z,101272.84
2023-01-31T09:28:45.571Z,101277.41
2023-01-31T09:31:16.757Z,101282.94
2023-01-31T09:33:45.058Z,101273.91
2023-01-31T09:36:16.219Z,101271.06
2023-01-31T09:38:43.311Z,101262.47
2023-01-31T09:41:21.213Z,101254.72
2023-01-31T09:43:59.225Z,101238.78
2023-01-31T09:46:32.421Z,101236.91
2023-01-31T09:49:02.380Z,101231.84
2023-01-31T09:51:29.838Z,101236.63
2023-01-31T09:53:57.795Z,101244.78
2023-01-31T09:56:51.865Z,101241.25
2023-01-31T09:59:32.054Z,101240.59
2023-01-31T10:02:50.769Z,101252.50
2023-01-31T10:05:51.629Z,101265.28
2023-01-31T10:08:47.264Z,101251.16
2023-01-31T10:11:48.267Z,101246.75
2023-01-31T10:14:32.006Z,101242.84
2023-01-31T10:17:23.797Z,101235.44
2023-01-31T10:20:22.311Z,101240.19
2023-01-31T10:23:38.713Z,101220.81
2023-01-31T10:26:28.471Z,101223.59
2023-01-31T10:29:16.136Z,101223.66
2023-01-31T10:31:59.701Z,101212.38
2023-01-31T10:34:35.141Z,101208.69
2023-01-31T10:37:16.613Z,101192.91
2023-01-31T10:40:14.551Z,101184.78
2023-01-31T10:42:46.425Z,101175.22
2023-01-31T10:45:18.092Z,101181.63
2023-01-31T10:47:51.886Z,101176.53
2023-01-31T10:50:43.990Z,101168.06
2023-01-31T10:53:33.993Z,101152.41
2023-01-31T10:56:35.826Z,101156.28
2023-01-31T10:59:13.277Z,101156.97
2023-01-31T11:01:40.363Z,101158.97
2023-01-31T11:04:39.280Z,101146.00
2023-01-31T11:07:07.027Z,101147.88
2023-01-31T11:09:39.777Z,101149.78
2023-01-31T11:12:08.610Z,101129.94
2023-01-31T11:14:36.895Z,101116.06
2023-01-31T11:17:14.768Z,101120.75
2023-01-31T11:19:51.400Z,101100.41
2023-01-31T11:22:31.869Z,101088.22
2023-01-31T11:25:02.115Z,101078.63
2023-01-31T11:27:43.864Z,101073.31
2023-01-31T11:30:35.605Z,101055.81
2023-01-31T11:33:03.282Z,101048.22
2023-01-31T11:35:33.267Z,101044.75
2023-01-31T11:38:12.394Z,101052.63
2023-01-31T11:40:40.660Z,101029.09
2023-01-31T11:43:26.347Z,101040.34
2023-01-31T11:46:03.683Z,101033.59
2023-01-31T11:48:44.843Z,101046.69
2023-01-31T11:51:31.024Z,101042.41
2023-01-31T11:53:58.397Z,101023.22
2023-01-31T11:56:31.797Z,101025.16
2023-01-31T11:59:06.009Z,101006.53
2023-01-31T12:01:35.121Z,101029.03
2023-01-31T12:04:05.024Z,101051.97
2023-01-31T12:06:40.892Z,101034.97
2023-01-31T12:09:25.025Z,101003.66
2023-01-31T12:12:00.522Z,100993.81
2023-01-31T12:14:40.945Z,100985.06
2023-01-31T12:17:14.326Z,100975.47
2023-01-31T12:20:28.782Z,100956.66
2023-01-31T12:23:36.945Z,100921.03
2023-01-31T12:26:34.906Z,100891.50
2023-01-31T12:29:15.838Z,100896.84
2023-01-31T12:32:14.294Z,100892.91
2023-01-31T12:35:44.098Z,100909.16
2023-01-31T12:38:23.772Z,100920.59
2023-01-31T12:41:29.675Z,100930.38
2023-01-31T12:43:56.733Z,100931.97
2023-01-31T12:46:41.519Z,100941.31
2023-01-31T12:49:23.690Z,100940.72
2023-01-31T12:52:21.854Z,100944.69
2023-01-31T12:55:32.074Z,100940.59
2023-01-31T12:58:37.516Z,100941.38
2023-01-31T13:01:24.955Z,100930.91
2023-01-31T13:04:22.650Z,100926.44
2023-01-31T13:06:58.976Z,100926.19
2023-01-31T13:09:35.401Z,100925.88
2023-01-31T13:12:13.506Z,100925.75
2023-01-31T13:14:59.098Z,100903.25
2023-01-31T13:17:29.170Z,100894.63
2023-01-31T13:20:30.412Z,100885.75
2023-01-31T13:23:05.427Z,100897.06
2023-01-31T13:25:59.914Z,100905.34
2023-01-31T13:28:33.188Z,100901.00
2023-01-31T13:31:05.950Z,100881.53
2023-01-31T13:33:48.083Z,100874.56
2023-01-31T13:36:35.921Z,100872.84
2023-01-31T13:39:22.224Z,100874.75
2023-01-31T13:41:49.246Z,100859.81
2023-01-31T13:44:17.463Z,100870.34
2023-01-31T13:46:53.522Z,100884.44
2023-01-31T13:49:25.572Z,100881.00
2023-01-31T13:52:25.876Z,100900.03
2023-01-31T13:55:09.973Z,100899.75
2023-01-31T13:57:46.940Z,100907.47
2023-01-31T14:00:41.685Z,100903.91
2023-01-31T14:03:21.012Z,100906.56
2023-01-31T14:05:58.700Z,100916.41
2023-01-31T14:08:52.396Z,100921.97
2023-01-31T14:11:22.057Z,100930.13
2023-01-31T14:13:51.139Z,100907.44
2023-01-31T14:16:46.307Z,100906.56
2023-01-31T14:19:19.352Z,100906.72
2023-01-31T14:22:35.270Z,100906.44
2023-01-31T14:25:10.156Z,100906.31
2023-01-31T14:27:57.039Z,100903.75
2023-01-31T14:30:37.405Z,100889.94
2023-01-31T14:33:07.389Z,100902.19
2023-01-31T14:36:12.872Z,100902.97
2023-01-31T14:39:24.659Z,100899.53
2023-01-31T14:42:49.300Z,100902.97
2023-01-31T14:45:40.833Z,100916.00
2023-01-31T14:48:49.069Z,100920.00
2023-01-31T14:51:45.680Z,100906.03
2023-01-31T14:54:59.676Z,100920.84
2023-01-31T14:57:32.134Z,100925.97
2023-01-31T15:00:17.040Z,100919.66
2023-01-31T15:03:08.643Z,100916.09
2023-01-31T15:05:35.682Z,100914.06
2023-01-31T15:08:27.180Z,100924.50
2023-01-31T15:11:40.132Z,100927.28
2023-01-31T15:14:35.359Z,100919.25
2023-01-31T15:17:31.613Z,100928.13
2023-01-31T15:20:24.822Z,100923.31
2023-01-31T15:22:58.406Z,100913.47
2023-01-31T15:25:42.814Z,100905.78
2023-01-31T15:28:16.975Z,100900.16
2023-01-31T15:30:44.965Z,100904.56
2023-01-31T15:33:42.250Z,100921.19
2023-01-31T15:36:32.621Z,100921.19
2023-01-31T15:39:17.353Z,100918.44
2023-01-31T15:41:44.846Z,100926.31
2023-01-31T15:44:20.498Z,100935.06
2023-01-31T15:46:51.131Z,100934.34
2023-01-31T15:49:38.956Z,100928.28
2023-01-31T15:52:22.370Z,100934.41
2023-01-31T15:55:05.034Z,100921.06
2023-01-31T15:57:57.886Z,100930.97
2023-01-31T16:00:35.278Z,100943.16
2023-01-31T16:03:06.907Z,100934.41
2023-01-31T16:05:38.670Z,100929.09
2023-01-31T16:08:36.108Z,100938.22
2023-01-31T16:11:08.021Z,100939.91
2023-01-31T16:13:40.154Z,100928.97
2023-01-31T16:16:11.790Z,100945.47
2023-01-31T16:18:39.089Z,100947.06
2023-01-31T16:21:39.771Z,100964.56
2023-01-31T16:24:16.488Z,100946.94
2023-01-31T16:27:03.058Z,100957.53
2023-01-31T16:29:45.445Z,100959.28
2023-01-31T16:32:26.954Z,100964.25
2023-01-31T16:35:08.024Z,100950.47
2023-01-31T16:37:37.963Z,100947.72
2023-01-31T16:40:31.869Z,100957.16
2023-01-31T16:43:29.196Z,100949.44
2023-01-31T16:46:06.484Z,100960.22
2023-01-31T16:48:37.069Z,100946.50
2023-01-31T16:51:22.759Z,100967.38
2023-01-31T16:54:17.744Z,100950.47
2023-01-31T16:57:21.633Z,100951.84
2023-01-31T16:59:51.473Z,100944.88
2023-01-31T17:02:26.270Z,100936.78
2023-01-31T17:05:00.506Z,100942.78
2023-01-31T17:07:35.201Z,100946.88
2023-01-31T17:10:09.467Z,100931.84
2023-01-31T17:12:40.384Z,100929.81
2023-01-31T17:15:19.983Z,100946.16
2023-01-31T17:17:48.141Z,100925.47
2023-01-31T17:20:21.570Z,100938.38
2023-01-31T17:23:03.963Z,100935.81
2023-01-31T17:25:36.574Z,100929.75
2023-01-31T17:28:05.231Z,100931.53
2023-01-31T17:30:33.235Z,100933.63
2023-01-31T17:33:01.048Z,100930.97
2023-01-31T17:35:34.809Z,100940.72
2023-01-31T17:38:02.260Z,100937.28
2023-01-31T17:40:29.545Z,100932.16
2023-01-31T17:43:05.956Z,100943.00
2023-01-31T17:45:33.210Z,100937.66
2023-01-31T17:48:00.562Z,100943.91
2023-01-31T17:50:29.421Z,100937.41
2023-01-31T17:52:57.236Z,100941.00
2023-01-31T17:55:25.354Z,100950.16
2023-01-31T17:57:52.972Z,100944.34
2023-01-31T18:00:21.068Z,100942.41
2023-01-31T18:02:48.393Z,100937.66
2023-01-31T18:05:20.444Z,100955.59
2023-01-31T18:07:51.786Z,100955.94
2023-01-31T18:10:19.064Z,100942.47
2023-01-31T18:12:46.176Z,100960.22
2023-01-31T18:15:16.159Z,100967.50
2023-01-31T18:17:43.251Z,100972.59
2023-01-31T18:20:11.019Z,100976.06
2023-01-31T18:22:37.989Z,100958.94
2023-01-31T18:25:06.026Z,100954.53
2023-01-31T18:27:33.393Z,100967.06
2023-01-31T18:30:00.656Z,100965.28
2023-01-31T18:32:27.890Z,100958.94
2023-01-31T18:34:55.055Z,100949.16
2023-01-31T18:37:22.200Z,100950.78
2023-01-31T18:39:50.881Z,100950.00
2023-01-31T18:42:18.618Z,100948.97
2023-01-31T18:44:46.992Z,100940.16
2023-01-31T18:47:15.708Z,100952.56
2023-01-31T18:49:43.430Z,100954.41
2023-01-31T18:52:10.928Z,100953.72
2023-01-31T18:54:38.985Z,100964.25
2023-01-31T18:57:06.278Z,100976.38
2023-01-31T18:59:36.449Z,100976.44
2023-01-31T19:02:03.846Z,100967.81
2023-01-31T19:04:30.898Z,100973.75
2023-01-31T19:06:58.220Z,100966.59
2023-01-31T19:09:25.554Z,100960.22
2023-01-31T19:11:52.693Z,100953.00
2023-01-31T19:14:20.172Z,100953.97
2023-01-31T19:16:49.386Z,100950.38
2023-01-31T19:19:16.805Z,100962.78
2023-01-31T19:21:44.054Z,100965.28
2023-01-31T19:24:14.392Z,100968.59
2023-01-31T19:26:42.552Z,100978.25
2023-01-31T19:29:14.763Z,100983.22
2023-01-31T19:31:42.075Z,100998.56
2023-01-31T19:34:09.450Z,100983.28
2023-01-31T19:36:40.728Z,100984.75
2023-01-31T19:39:10.903Z,100976.13
2023-01-31T19:41:38.208Z,100991.84
2023-01-31T19:44:05.531Z,100985.78
2023-01-31T19:46:35.913Z,100987.38
2023-01-31T19:49:03.532Z,100985.06
2023-01-31T19:51:30.999Z,100994.34
2023-01-31T19:54:01.407Z,100974.72
2023-01-31T19:56:29.673Z,100979.84
2023-01-31T19:58:57.074Z,100983.53
2023-01-31T20:01:24.731Z,100973.38
2023-01-31T20:03:53.925Z,100979.06
2023-01-31T20:06:25.869Z,100973.06
2023-01-31T20:08:56.691Z,100982.31
2023-01-31T20:11:26.940Z,100996.06
2023-01-31T20:13:55.603Z,100996.06
2023-01-31T20:16:23.063Z,100998.81
2023-01-31T20:18:51.475Z,101007.69
2023-01-31T20:21:20.915Z,101005.84
2023-01-31T20:23:49.240Z,101002.44
2023-01-31T20:26:18.563Z,101010.69
2023-01-31T20:28:45.971Z,101005.59
2023-01-31T20:31:15.387Z,100997.72
2023-01-31T20:33:43.056Z,101002.00
2023-01-31T20:36:11.430Z,100998.69
2023-01-31T20:38:39.820Z,100996.13
2023-01-31T20:41:09.190Z,100986.09
2023-01-31T20:43:37.742Z,100991.59
2023-01-31T20:46:19.594Z,100993.91
2023-01-31T20:48:46.815Z,100992.94
2023-01-31T20:51:14.278Z,100983.34
2023-01-31T20:53:41.564Z,100994.66
2023-01-31T20:56:11.082Z,100998.06
2023-01-31T20:58:41.407Z,101003.28
2023-01-31T21:01:10.611Z,100999.00
2023-01-31T21:03:38.009Z,101005.28
2023-01-31T21:06:06.501Z,101013.13
2023-01-31T21:08:37.723Z,101009.88
2023-01-31T21:11:10.883Z,101001.00
2023-01-31T21:13:39.077Z,101014.91
2023-01-31T21:16:08.455Z,101009.88
2023-01-31T21:18:40.218Z,101020.41
2023-01-31T21:21:11.024Z,101011.22
2023-01-31T21:23:40.166Z,101028.66
2023-01-31T21:26:11.802Z,101024.13
2023-01-31T21:28:43.865Z,101016.00
2023-01-31T21:31:17.439Z,101018.75
2023-01-31T21:33:50.565Z,101020.53
2023-01-31T21:36:21.665Z,101017.16
2023-01-31T21:38:48.883Z,101031.22
2023-01-31T21:41:35.627Z,101026.81
2023-01-31T21:44:03.851Z,101026.34
2023-01-31T21:46:31.181Z,101033.97
2023-01-31T21:49:00.508Z,101035.22
2023-01-31T21:51:28.403Z,101034.28
2023-01-31T21:53:55.790Z,101027.75
2023-01-31T21:56:26.677Z,101027.69
2023-01-31T21:58:55.683Z,101029.44
2023-01-31T22:01:28.005Z,101029.44
2023-01-31T22:03:56.476Z,101024.09
2023-01-31T22:06:50.877Z,101021.16
2023-01-31T22:09:18.779Z,101021.28
2023-01-31T22:11:47.631Z,101020.00
2023-01-31T22:14:16.730Z,101009.38
2023-01-31T22:16:44.478Z,100999.28
2023-01-31T22:19:13.785Z,100999.34
2023-01-31T22:21:42.252Z,101010.34
2023-01-31T22:24:11.825Z,101009.25
2023-01-31T22:26:42.801Z,101014.28
2023-01-31T22:29:13.541Z,101012.25
2023-01-31T22:31:40.707Z,101007.13
2023-01-31T22:34:11.738Z,100995.09
2023-01-31T22:36:38.971Z,101004.69
2023-01-31T22:39:06.435Z,101005.03
2023-01-31T22:41:33.452Z,100999.19
2023-01-31T22:44:00.453Z,100993.34
2023-01-31T22:46:29.185Z,100988.28
2023-01-31T22:48:56.566Z,101000.09
2023-01-31T22:51:29.131Z,100993.03
2023-01-31T22:53:58.256Z,100983.09
2023-01-31T22:56:32.144Z,100978.41
2023-01-31T22:59:05.442Z,100969.09
2023-01-31T23:01:37.627Z,100948.00
2023-01-31T23:04:11.079Z,100952.81
2023-01-31T23:06:38.641Z,100942.09
2023-01-31T23:09:25.452Z,100925.97
2023-01-31T23:11:52.518Z,100916.28
2023-01-31T23:14:20.227Z,100911.69
2023-01-31T23:17:18.088Z,100919.97
2023-01-31T23:19:46.844Z,100910.13
2023-01-31T23:22:15.454Z,100916.22
2023-01-31T23:24:42.558Z,100916.28
2023-01-31T23:27:09.617Z,100929.38
2023-01-31T23:29:36.751Z,100937.50
2023-01-31T23:32:04.234Z,100939.22
2023-01-31T23:34:31.186Z,100940.94
2023-01-31T23:36:58.624Z,100948.91
2023-01-31T23:39:25.757Z,100941.78
2023-01-31T23:41:52.810Z,100948.69
2023-01-31T23:44:19.811Z,100951.25
2023-01-31T23:46:47.119Z,100951.19
2023-01-31T23:49:14.141Z,100955.53
2023-01-31T23:51:41.203Z,100954.72
2023-01-31T23:54:08.266Z,100964.19
2023-01-31T23:56:35.302Z,100963.09
2023-01-31T23:59:03.039Z,100967.34
